Time;durP1;ratioP1;P1;durP2;ratioP2;P2;SDS_P1;SDS_P2;PMS_P1;PMS_P2;Temp;Humidity;BMP_temperature;BMP_pressure;BME280_temperature;BME280_humidity;BME280_pressure;Samples;Min_cycle;Max_cycle;Signal;HPM_P1;HPM_P2
2022/04/16 00:00:58;;;;;;;2.83;1.75;;;24.70;37.10;;;;;;5055209;28;20476;-66
2022/04/16 00:03:25;;;;;;;2.50;1.85;;;24.70;37.10;;;;;;5055200;28;20393;-64
2022/04/16 00:05:53;;;;;;;2.05;1.52;;;24.70;37.10;;;;;;5054951;28;20447;-64
2022/04/16 00:08:27;;;;;;;2.28;1.80;;;24.80;37.20;;;;;;5055011;28;20397;-65
2022/04/16 00:10:54;;;;;;;2.28;1.77;;;24.70;37.10;;;;;;5020902;28;20389;-64
2022/04/16 00:13:20;;;;;;;2.13;1.67;;;24.70;37.70;;;;;;5054787;28;20892;-64
2022/04/16 00:15:49;;;;;;;2.30;1.75;;;24.70;37.10;;;;;;5053195;28;20393;-63
2022/04/16 00:18:16;;;;;;;2.20;1.70;;;24.70;37.10;;;;;;5054784;28;20389;-64
2022/04/16 00:20:41;;;;;;;2.20;1.70;;;24.70;37.10;;;;;;5054883;28;20385;-65
2022/04/16 00:23:07;;;;;;;2.42;1.70;;;24.70;37.20;;;;;;5054623;28;20753;-64
2022/04/16 00:25:34;;;;;;;2.65;1.83;;;24.70;37.20;;;;;;5054429;28;20394;-64
2022/04/16 00:28:01;;;;;;;2.45;1.90;;;24.70;37.20;;;;;;5053898;28;20738;-64
2022/04/16 00:30:26;;;;;;;2.03;1.60;;;24.70;37.20;;;;;;5054439;28;20459;-64
2022/04/16 00:32:55;;;;;;;3.10;1.80;;;24.70;37.20;;;;;;5053191;28;20443;-64
2022/04/16 00:35:23;;;;;;;2.20;1.70;;;24.70;37.20;;;;;;5054231;28;20381;-63
2022/04/16 00:37:49;;;;;;;2.38;1.90;;;24.70;37.30;;;;;;5036112;28;20405;-64
2022/04/16 00:40:15;;;;;;;2.13;1.75;;;24.70;37.50;;;;;;5054341;28;20385;-64
2022/04/16 00:42:44;;;;;;;2.25;1.77;;;24.80;39.70;;;;;;5052690;28;20750;-63
2022/04/16 00:45:10;;;;;;;2.75;1.65;;;24.80;41.10;;;;;;5053669;28;20396;-64
2022/04/16 00:47:36;;;;;;;2.03;1.73;;;24.80;40.80;;;;;;5053836;28;20463;-64
2022/04/16 00:50:04;;;;;;;2.20;1.50;;;24.80;42.60;;;;;;5054135;28;20877;-63
2022/04/16 00:52:30;;;;;;;1.90;1.70;;;24.80;42.60;;;;;;5053914;28;20743;-63
2022/04/16 00:54:56;;;;;;;2.20;1.80;;;24.70;41.60;;;;;;5036177;28;20418;-64
2022/04/16 00:57:23;;;;;;;2.67;1.50;;;24.70;41.30;;;;;;5054036;28;20433;-63
2022/04/16 00:59:49;;;;;;;2.65;1.70;;;24.80;43.20;;;;;;5053484;28;20377;-64
2022/04/16 01:02:14;;;;;;;2.28;1.60;;;24.70;42.30;;;;;;5053839;28;20404;-64
2022/04/16 01:04:40;;;;;;;1.90;1.70;;;24.70;41.90;;;;;;5053627;28;20386;-64
2022/04/16 01:07:06;;;;;;;2.15;1.60;;;24.70;41.30;;;;;;5053839;28;20389;-64
2022/04/16 01:09:33;;;;;;;2.28;1.77;;;24.80;40.80;;;;;;5053560;28;20444;-64
2022/04/16 01:11:59;;;;;;;2.30;1.75;;;24.70;40.00;;;;;;5052134;28;20743;-63
2022/04/16 01:14:25;;;;;;;1.80;1.50;;;24.70;39.00;;;;;;5053647;28;20402;-63
2022/04/16 01:16:56;;;;;;;2.90;1.70;;;24.70;39.30;;;;;;5053820;28;20381;-63
2022/04/16 01:19:22;;;;;;;2.10;1.77;;;24.70;39.30;;;;;;5053488;28;20750;-64
2022/04/16 01:21:48;;;;;;;2.28;1.80;;;24.70;39.30;;;;;;5053208;28;20534;-64
2022/04/16 01:24:14;;;;;;;1.95;1.75;;;24.70;40.10;;;;;;5053474;28;20394;-64
2022/04/16 01:26:43;;;;;;;2.00;1.80;;;24.70;41.10;;;;;;5053579;28;20391;-64
2022/04/16 01:29:10;;;;;;;2.00;1.60;;;24.70;40.80;;;;;;5053166;28;20393;-64
2022/04/16 01:31:36;;;;;;;2.13;1.50;;;24.70;40.60;;;;;;5053098;28;20543;-64
2022/04/16 01:34:01;;;;;;;2.03;1.50;;;24.70;40.80;;;;;;5053142;28;20465;-64
2022/04/16 01:36:31;;;;;;;1.90;1.60;;;24.70;40.50;;;;;;5053251;28;20727;-64
2022/04/16 01:38:57;;;;;;;2.22;1.65;;;24.70;40.20;;;;;;5053322;28;20424;-64
2022/04/16 01:41:27;;;;;;;2.20;1.50;;;24.70;40.20;;;;;;5053170;28;20459;-63
2022/04/16 01:43:54;;;;;;;2.80;1.60;;;24.70;40.40;;;;;;5052684;28;20393;-63
2022/04/16 01:46:19;;;;;;;2.00;1.50;;;24.60;40.20;;;;;;5052935;28;20397;-63
2022/04/16 01:48:46;;;;;;;2.10;1.57;;;24.60;40.20;;;;;;5053178;28;20753;-63
2022/04/16 01:51:11;;;;;;;2.50;1.60;;;24.60;40.20;;;;;;5052868;28;20389;-63
2022/04/16 01:53:37;;;;;;;1.73;1.53;;;24.60;40.00;;;;;;5052695;28;20404;-64
2022/04/16 01:56:03;;;;;;;1.92;1.52;;;24.60;40.00;;;;;;5052778;28;20857;-64
2022/04/16 01:58:31;;;;;;;2.60;1.73;;;24.60;39.90;;;;;;5052846;28;20804;-63
2022/04/16 02:00:56;;;;;;;1.95;1.50;;;24.60;40.00;;;;;;5052888;28;20390;-63
2022/04/16 02:03:22;;;;;;;2.58;1.40;;;24.60;39.80;;;;;;5051499;28;20488;-64
2022/04/16 02:05:48;;;;;;;1.90;1.53;;;24.60;39.80;;;;;;5052339;28;20393;-65
2022/04/16 02:08:13;;;;;;;1.98;1.40;;;24.60;39.60;;;;;;5052526;28;20854;-64
2022/04/16 02:10:39;;;;;;;2.10;1.70;;;24.60;39.50;;;;;;5052711;28;20393;-64
2022/04/16 02:13:05;;;;;;;2.05;1.60;;;24.60;39.50;;;;;;5052522;28;20409;-63
2022/04/16 02:15:30;;;;;;;1.90;1.70;;;24.60;39.60;;;;;;5051909;28;20386;-64
2022/04/16 02:17:56;;;;;;;2.40;1.58;;;24.60;39.50;;;;;;5034264;28;20758;-63
2022/04/16 02:20:23;;;;;;;2.00;1.80;;;24.60;39.50;;;;;;5052374;28;20730;-63
2022/04/16 02:22:49;;;;;;;2.05;1.52;;;24.60;39.40;;;;;;5052271;28;20753;-63
2022/04/16 02:25:20;;;;;;;2.10;1.67;;;24.60;39.50;;;;;;5052292;28;20393;-63
2022/04/16 02:27:46;;;;;;;2.00;1.50;;;24.60;39.40;;;;;;5033992;28;20761;-63
2022/04/16 02:30:14;;;;;;;2.58;1.90;;;24.60;39.40;;;;;;5051886;28;20378;-64
2022/04/16 02:32:43;;;;;;;2.00;1.65;;;24.50;39.40;;;;;;5051612;28;20444;-63
2022/04/16 02:35:11;;;;;;;1.70;1.40;;;24.50;39.40;;;;;;5052131;28;20440;-63
2022/04/16 02:37:37;;;;;;;1.90;1.70;;;24.50;39.40;;;;;;5051769;28;20893;-63
2022/04/16 02:40:04;;;;;;;1.97;1.50;;;24.50;39.40;;;;;;5034192;28;20417;-63
2022/04/16 02:42:33;;;;;;;2.75;1.45;;;24.50;39.40;;;;;;5051949;28;20428;-63
2022/04/16 02:47:43;;;;;;;2.55;1.50;;;24.50;39.40;;;;;;5051375;28;20495;-64
2022/04/16 02:50:09;;;;;;;1.90;1.40;;;24.50;39.40;;;;;;5050601;28;20436;-64
2022/04/16 02:52:37;;;;;;;1.70;1.50;;;24.50;39.40;;;;;;5051791;28;20420;-63
2022/04/16 02:55:04;;;;;;;2.08;1.50;;;24.40;39.40;;;;;;5051927;28;20478;-63
2022/04/16 02:57:33;;;;;;;2.13;1.58;;;24.40;39.40;;;;;;5051814;28;20727;-63
2022/04/16 02:59:59;;;;;;;2.40;1.63;;;24.50;39.50;;;;;;5051320;28;20389;-64
2022/04/16 03:02:24;;;;;;;2.22;1.60;;;24.40;39.50;;;;;;5051741;28;20413;-63
2022/04/16 03:04:50;;;;;;;2.20;1.50;;;24.40;39.50;;;;;;5051630;28;20421;-63
2022/04/16 03:07:19;;;;;;;2.05;1.60;;;24.40;39.60;;;;;;5051487;28;20753;-64
2022/04/16 03:09:44;;;;;;;2.08;1.40;;;24.40;39.70;;;;;;5051099;28;20598;-64
2022/04/16 03:12:10;;;;;;;1.60;1.30;;;24.50;39.80;;;;;;5051431;28;20892;-63
2022/04/16 03:17:33;;;;;;;2.08;1.42;;;24.40;39.80;;;;;;5051547;28;20419;-63
2022/04/16 03:20:06;;;;;;;2.10;1.40;;;24.40;39.70;;;;;;5051029;28;20393;-66
2022/04/16 03:22:36;;;;;;;2.13;1.50;;;24.50;39.80;;;;;;5051307;28;20444;-63
2022/04/16 03:25:07;;;;;;;2.50;1.70;;;24.40;39.90;;;;;;5033462;28;20389;-63
2022/04/16 03:27:33;;;;;;;1.83;1.70;;;24.40;40.10;;;;;;5051386;28;20389;-63
2022/04/16 03:29:58;;;;;;;2.23;1.50;;;24.40;40.30;;;;;;5050717;28;20439;-63
2022/04/16 03:32:24;;;;;;;2.15;1.48;;;24.30;36.70;;;;;;5050949;28;20657;-63
2022/04/16 03:34:50;;;;;;;1.90;1.60;;;24.30;36.90;;;;;;5033507;28;20394;-63
2022/04/16 03:37:16;;;;;;;1.75;1.48;;;24.30;37.00;;;;;;5033160;28;20460;-63
2022/04/16 03:39:43;;;;;;;2.10;1.23;;;24.30;37.10;;;;;;5051053;28;20386;-63
2022/04/16 03:42:10;;;;;;;1.98;1.50;;;24.40;37.70;;;;;;5050953;28;20442;-63
2022/04/16 03:44:37;;;;;;;1.77;1.45;;;24.30;38.40;;;;;;5051181;28;20472;-63
2022/04/16 03:47:03;;;;;;;1.92;1.50;;;24.30;39.70;;;;;;5050877;28;20489;-63
2022/04/16 03:49:29;;;;;;;1.60;1.50;;;24.30;40.30;;;;;;5050552;28;20772;-63
2022/04/16 03:51:55;;;;;;;2.08;1.50;;;24.30;40.10;;;;;;5050395;28;20412;-63
2022/04/16 04:00:00;;;;;;;1.63;1.20;;;24.30;41.40;;;;;;5050673;28;20419;-64
2022/04/16 04:02:30;;;;;;;1.60;1.40;;;24.30;40.50;;;;;;5050936;28;21082;-63
2022/04/16 04:04:57;;;;;;;2.50;1.63;;;24.30;40.30;;;;;;5033140;28;20449;-63
2022/04/16 04:07:23;;;;;;;2.30;2.00;;;24.30;40.10;;;;;;5050911;28;20386;-63
2022/04/16 04:09:49;;;;;;;2.70;1.70;;;24.30;40.60;;;;;;5050463;28;20442;-63
2022/04/16 04:12:16;;;;;;;4.28;3.20;;;24.30;40.40;;;;;;5050608;28;20966;-63
2022/04/16 04:14:43;;;;;;;5.00;2.50;;;24.30;40.90;;;;;;5050769;28;20485;-64
2022/04/16 04:17:09;;;;;;;3.80;1.90;;;24.40;44.20;;;;;;5050589;28;20488;-64
2022/04/16 04:19:37;;;;;;;5.22;2.10;;;24.40;42.80;;;;;;5050769;28;20397;-66
2022/04/16 04:22:08;;;;;;;7.10;2.10;;;24.30;44.20;;;;;;5050242;28;20401;-66
2022/04/16 04:24:35;;;;;;;6.85;2.20;;;24.40;44.50;;;;;;5050642;28;20382;-64
2022/04/16 04:27:01;;;;;;;7.82;2.20;;;24.40;44.60;;;;;;5050667;28;20386;-65
2022/04/16 04:29:27;;;;;;;4.40;1.90;;;24.40;46.40;;;;;;5050751;28;20385;-65
2022/04/16 04:31:54;;;;;;;4.60;2.00;;;24.60;46.20;;;;;;5049977;28;20480;-65
2022/04/16 04:34:20;;;;;;;11.47;2.37;;;24.60;46.70;;;;;;5051219;28;20488;-65
2022/04/16 04:36:46;;;;;;;4.90;2.08;;;24.40;59.20;;;;;;5051749;28;20430;-66
2022/04/16 04:39:15;;;;;;;4.30;1.92;;;24.40;60.00;;;;;;5052658;28;20385;-66
2022/04/16 04:41:43;;;;;;;5.47;1.92;;;24.50;60.00;;;;;;5054598;28;20439;-65
2022/04/16 04:44:12;;;;;;;5.17;2.00;;;24.50;60.00;;;;;;5053831;28;20384;-65
2022/04/16 04:46:38;;;;;;;6.60;1.80;;;24.40;60.20;;;;;;5053925;28;20869;-65
2022/04/16 04:49:08;;;;;;;3.22;1.83;;;24.50;60.70;;;;;;5054177;28;20413;-65
2022/04/16 04:51:39;;;;;;;3.15;2.00;;;24.50;60.60;;;;;;5053762;28;20405;-65
2022/04/16 04:54:06;;;;;;;3.25;1.85;;;24.50;60.00;;;;;;5035305;28;20393;-65
2022/04/16 04:56:33;;;;;;;6.35;2.00;;;24.40;59.50;;;;;;5053800;28;20412;-65
2022/04/16 04:58:58;;;;;;;4.95;2.00;;;24.40;59.80;;;;;;5053706;28;20885;-65
2022/04/16 05:01:24;;;;;;;11.43;2.10;;;24.40;60.30;;;;;;5053983;28;20452;-65
2022/04/16 05:03:50;;;;;;;4.85;1.88;;;24.40;60.50;;;;;;5053152;28;20425;-65
2022/04/16 05:06:16;;;;;;;6.43;1.83;;;24.50;60.70;;;;;;5054130;28;20381;-64
2022/04/16 05:08:43;;;;;;;4.65;1.90;;;24.50;61.00;;;;;;5053580;28;20385;-64
2022/04/16 05:11:09;;;;;;;4.80;1.90;;;24.50;60.20;;;;;;5053201;28;20423;-65
2022/04/16 05:13:35;;;;;;;3.60;1.88;;;24.40;60.40;;;;;;5053594;28;20754;-65
2022/04/16 05:16:01;;;;;;;4.07;1.90;;;24.40;60.50;;;;;;5053053;28;20392;-64
2022/04/16 05:18:26;;;;;;;3.80;1.80;;;24.40;60.30;;;;;;5053503;28;20480;-65
2022/04/16 05:20:52;;;;;;;3.80;1.80;;;24.40;60.40;;;;;;5053467;28;20385;-65
2022/04/16 05:23:18;;;;;;;3.90;2.05;;;24.40;60.30;;;;;;5053255;28;20393;-65
2022/04/16 05:25:43;;;;;;;3.20;1.90;;;24.40;60.40;;;;;;5035391;28;20424;-65
2022/04/16 05:28:09;;;;;;;4.55;1.88;;;24.30;60.40;;;;;;5053077;28;20444;-65
2022/04/16 05:30:44;;;;;;;2.77;1.90;;;24.30;60.00;;;;;;5053292;28;20880;-65
2022/04/16 05:34:18;;;;;;;3.00;1.80;;;24.30;60.00;;;;;;5035353;28;20413;-65
2022/04/16 05:36:03;;;;;;;4.15;1.80;;;24.30;60.10;;;;;;5052642;28;20389;-65
2022/04/16 05:38:29;;;;;;;3.53;1.80;;;24.30;60.30;;;;;;5053116;28;20397;-64
2022/04/16 05:40:54;;;;;;;2.97;1.90;;;24.30;60.20;;;;;;5053215;28;20385;-64
2022/04/16 05:43:20;;;;;;;2.70;2.00;;;24.30;59.80;;;;;;5052916;28;20719;-64
2022/04/16 05:45:46;;;;;;;2.78;2.10;;;24.30;59.80;;;;;;5052775;28;20402;-64
2022/04/16 05:48:12;;;;;;;10.88;2.30;;;24.30;59.90;;;;;;5052473;28;20409;-64
2022/04/16 05:50:38;;;;;;;13.00;2.47;;;24.30;59.90;;;;;;5050695;28;20389;-65
2022/04/16 05:53:08;;;;;;;13.32;2.65;;;24.30;59.60;;;;;;5052860;28;20417;-64
2022/04/16 05:55:34;;;;;;;7.72;2.40;;;24.30;59.60;;;;;;5052991;28;20380;-64
2022/04/16 05:58:00;;;;;;;7.35;2.50;;;24.30;59.60;;;;;;5051197;28;20397;-64
2022/04/16 06:00:27;;;;;;;9.13;2.53;;;24.30;59.50;;;;;;5052833;28;20466;-64
2022/04/16 06:02:53;;;;;;;3.83;2.10;;;24.30;59.60;;;;;;5051549;28;20975;-64
2022/04/16 06:05:21;;;;;;;5.40;2.03;;;24.30;59.40;;;;;;5052683;28;20390;-64
2022/04/16 06:07:46;;;;;;;5.35;2.20;;;24.30;59.40;;;;;;5052376;28;20459;-65
2022/04/16 06:10:12;;;;;;;5.37;2.10;;;24.20;59.40;;;;;;5052434;28;20769;-65
2022/04/16 06:12:38;;;;;;;4.95;2.15;;;24.20;59.40;;;;;;5034749;28;20836;-65
2022/04/16 06:15:04;;;;;;;4.70;2.13;;;24.20;59.30;;;;;;5052507;28;20417;-65
2022/04/16 06:17:30;;;;;;;5.25;2.28;;;24.20;59.40;;;;;;5052433;28;20396;-65
2022/04/16 06:19:55;;;;;;;4.53;2.15;;;24.20;59.50;;;;;;5051922;28;20385;-65
2022/04/16 06:22:21;;;;;;;4.17;2.00;;;24.20;59.40;;;;;;5051820;28;20928;-65
2022/04/16 06:24:47;;;;;;;4.50;2.00;;;24.20;59.50;;;;;;5051512;28;20381;-64
2022/04/16 06:27:13;;;;;;;3.53;2.20;;;24.20;59.40;;;;;;5051336;28;20397;-65
2022/04/16 06:29:38;;;;;;;2.20;1.80;;;24.20;59.40;;;;;;5051328;28;20393;-65
2022/04/16 06:32:05;;;;;;;3.20;2.00;;;24.20;59.40;;;;;;5051020;28;20427;-65
2022/04/16 06:34:31;;;;;;;4.28;1.95;;;24.20;59.30;;;;;;5051414;28;20451;-65
2022/04/16 06:36:57;;;;;;;5.20;1.90;;;24.20;59.30;;;;;;5051086;28;20471;-64
2022/04/16 06:39:23;;;;;;;3.22;1.85;;;24.20;59.30;;;;;;5051195;28;20405;-64
2022/04/16 06:41:49;;;;;;;3.83;1.90;;;24.20;59.30;;;;;;5050985;28;20723;-65
2022/04/16 06:44:17;;;;;;;4.72;2.03;;;24.20;59.30;;;;;;5050877;28;20389;-65
2022/04/16 06:46:46;;;;;;;3.60;1.92;;;24.20;59.40;;;;;;5051995;28;20417;-65
2022/04/16 06:49:11;;;;;;;2.58;2.05;;;24.20;59.30;;;;;;5052150;28;20421;-65
2022/04/16 06:51:37;;;;;;;3.40;2.00;;;24.20;59.80;;;;;;5051884;28;20441;-65
2022/04/16 06:54:03;;;;;;;3.67;2.07;;;24.20;59.70;;;;;;5051178;28;20894;-65
2022/04/16 06:56:28;;;;;;;4.32;2.40;;;24.20;59.70;;;;;;5052233;28;20434;-65
2022/04/16 06:58:54;;;;;;;8.33;3.10;;;24.20;59.70;;;;;;5034037;28;20385;-65
2022/04/16 07:01:20;;;;;;;6.78;3.03;;;24.20;59.40;;;;;;5051986;28;20389;-63
2022/04/16 07:03:45;;;;;;;9.57;3.53;;;24.20;59.00;;;;;;5050696;28;20406;-64
2022/04/16 07:06:11;;;;;;;10.13;3.90;;;24.20;58.20;;;;;;5051287;28;20381;-63
2022/04/16 07:08:36;;;;;;;8.32;3.60;;;24.10;58.40;;;;;;5051486;28;20393;-63
2022/04/16 07:11:02;;;;;;;9.40;3.57;;;24.10;58.60;;;;;;5051764;28;20447;-63
2022/04/16 07:13:28;;;;;;;9.35;3.38;;;24.10;58.50;;;;;;5051475;28;20416;-63
2022/04/16 07:15:53;;;;;;;4.60;2.73;;;24.10;58.70;;;;;;5051325;28;20385;-63
2022/04/16 07:18:20;;;;;;;6.28;2.72;;;24.10;58.80;;;;;;5051271;28;20401;-63
2022/04/16 07:20:47;;;;;;;8.30;3.03;;;24.10;59.00;;;;;;5051505;28;20758;-64
2022/04/16 07:23:12;;;;;;;9.18;3.03;;;24.00;59.70;;;;;;5051588;28;20475;-65
2022/04/16 07:25:38;;;;;;;5.28;2.90;;;24.00;60.10;;;;;;5051760;28;20413;-63
2022/04/16 07:28:04;;;;;;;7.43;3.00;;;24.00;60.60;;;;;;5051096;28;20394;-64
2022/04/16 07:30:30;;;;;;;6.63;2.80;;;24.10;60.90;;;;;;5051417;28;20388;-63
2022/04/16 07:32:55;;;;;;;8.85;3.20;;;24.20;60.50;;;;;;5051340;28;20409;-64
2022/04/16 07:35:21;;;;;;;9.60;3.50;;;24.20;61.00;;;;;;5051211;28;20416;-64
2022/04/16 07:37:46;;;;;;;7.60;3.50;;;24.30;61.70;;;;;;5052063;28;20389;-65
2022/04/16 07:40:13;;;;;;;5.88;3.85;;;24.20;61.80;;;;;;5050861;28;20440;-65
2022/04/16 07:42:39;;;;;;;6.90;3.28;;;24.30;62.30;;;;;;5033443;28;20447;-65
2022/04/16 07:45:06;;;;;;;4.82;3.00;;;24.30;62.30;;;;;;5051152;28;20388;-65
2022/04/16 07:47:32;;;;;;;6.70;3.15;;;24.30;62.40;;;;;;5051999;28;20421;-64
2022/04/16 07:49:57;;;;;;;6.07;2.80;;;24.30;62.10;;;;;;5067114;28;20379;-64
2022/04/16 07:52:25;;;;;;;4.75;2.90;;;24.30;61.40;;;;;;5070897;28;20418;-64
2022/04/16 07:54:51;;;;;;;4.00;2.83;;;24.20;61.80;;;;;;5071195;28;20462;-64
2022/04/16 07:57:17;;;;;;;4.90;2.58;;;24.30;61.70;;;;;;5071064;28;20392;-63
2022/04/16 07:59:43;;;;;;;4.15;2.63;;;24.20;61.80;;;;;;5054483;28;20396;-64
2022/04/16 08:02:08;;;;;;;5.47;2.80;;;24.20;61.90;;;;;;5050655;28;20928;-64
2022/04/16 08:04:34;;;;;;;4.13;2.60;;;24.20;61.90;;;;;;5050979;28;20385;-63
2022/04/16 08:07:00;;;;;;;5.13;2.80;;;24.20;61.90;;;;;;5051040;28;20481;-64
2022/04/16 08:09:25;;;;;;;5.03;2.50;;;24.10;61.90;;;;;;5051167;28;20393;-63
2022/04/16 08:11:51;;;;;;;4.78;2.60;;;24.20;62.00;;;;;;5050404;28;20476;-63
2022/04/16 08:14:16;;;;;;;4.00;2.60;;;24.20;62.10;;;;;;5063827;28;20795;-63
2022/04/16 08:16:42;;;;;;;3.67;2.50;;;24.20;62.20;;;;;;5074739;28;20774;-64
2022/04/16 08:19:08;;;;;;;3.67;2.50;;;24.20;62.30;;;;;;5073446;28;20425;-64
2022/04/16 08:21:34;;;;;;;4.78;2.40;;;24.20;62.20;;;;;;5073336;28;20855;-63
2022/04/16 08:24:04;;;;;;;3.50;2.20;;;24.10;62.10;;;;;;5073332;28;20388;-63
2022/04/16 08:26:33;;;;;;;5.68;3.20;;;24.10;62.40;;;;;;5074856;28;20375;-64
2022/04/16 08:28:59;;;;;;;4.65;2.90;;;24.10;61.80;;;;;;5062952;28;20398;-64
2022/04/16 08:31:24;;;;;;;4.97;3.00;;;24.00;61.00;;;;;;5053171;28;20451;-63
2022/04/16 08:33:50;;;;;;;5.07;3.20;;;24.00;62.00;;;;;;5054502;28;20393;-64
2022/04/16 08:36:16;;;;;;;5.90;3.03;;;24.00;61.90;;;;;;5054147;28;20475;-65
2022/04/16 08:38:41;;;;;;;7.90;4.90;;;24.00;61.90;;;;;;5053228;28;20480;-64
2022/04/16 08:41:09;;;;;;;5.65;4.50;;;24.10;62.40;;;;;;5036232;28;20393;-65
2022/04/16 08:43:35;;;;;;;7.90;4.20;;;24.20;62.90;;;;;;5053625;28;20386;-65
2022/04/16 08:46:04;;;;;;;5.63;4.03;;;24.40;62.90;;;;;;5055153;28;20900;-65
2022/04/16 08:48:31;;;;;;;7.97;4.00;;;24.50;63.50;;;;;;5054297;28;20890;-65
2022/04/16 08:50:58;;;;;;;4.93;3.40;;;24.50;63.60;;;;;;5054530;28;20888;-65
2022/04/16 08:53:24;;;;;;;8.67;4.50;;;24.40;63.60;;;;;;5053879;28;20423;-65
2022/04/16 08:55:50;;;;;;;6.35;3.40;;;24.40;62.70;;;;;;5053609;28;20390;-65
2022/04/16 08:58:15;;;;;;;7.68;3.40;;;24.30;63.90;;;;;;5052136;28;20397;-65
2022/04/16 09:00:41;;;;;;;6.85;3.60;;;24.30;64.00;;;;;;5053146;28;20400;-65
2022/04/16 09:03:09;;;;;;;6.23;3.50;;;24.30;64.40;;;;;;5034878;28;20397;-65
2022/04/16 09:05:35;;;;;;;5.75;3.50;;;24.30;64.40;;;;;;5053716;28;20386;-65
2022/04/16 09:08:05;;;;;;;6.68;3.28;;;24.30;64.60;;;;;;5053668;28;20382;-65
2022/04/16 09:10:36;;;;;;;5.05;3.60;;;24.30;64.80;;;;;;5053957;28;20448;-65
2022/04/16 09:13:04;;;;;;;7.53;3.60;;;24.40;65.20;;;;;;5053673;28;20453;-65
2022/04/16 09:15:31;;;;;;;6.47;3.70;;;24.30;65.30;;;;;;5053314;28;20386;-65
2022/04/16 09:18:00;;;;;;;6.25;3.55;;;24.40;65.40;;;;;;5053588;28;20760;-65
2022/04/16 09:20:34;;;;;;;5.43;3.70;;;24.40;65.10;;;;;;5052076;28;20422;-64
2022/04/16 09:23:02;;;;;;;6.38;4.50;;;24.30;65.20;;;;;;5053573;28;20484;-65
2022/04/16 09:25:31;;;;;;;8.93;3.70;;;24.30;65.40;;;;;;5053806;28;20382;-65
2022/04/16 09:27:58;;;;;;;10.83;4.00;;;24.30;65.80;;;;;;5053184;28;20451;-64
2022/04/16 09:30:29;;;;;;;14.07;4.35;;;24.30;66.40;;;;;;5053225;28;21054;-65
2022/04/16 09:32:57;;;;;;;12.07;4.00;;;24.30;66.50;;;;;;5048746;28;20424;-64
2022/04/16 09:35:28;;;;;;;10.47;3.93;;;24.30;66.50;;;;;;5054102;28;20417;-64
2022/04/16 09:37:59;;;;;;;9.10;4.00;;;24.30;66.50;;;;;;5051287;28;20484;-65
2022/04/16 09:40:30;;;;;;;7.18;3.40;;;24.30;66.50;;;;;;5051251;28;20412;-65
2022/04/16 09:42:57;;;;;;;8.23;3.90;;;24.30;66.30;;;;;;5051678;28;20943;-64
2022/04/16 09:45:23;;;;;;;10.80;4.03;;;24.30;66.30;;;;;;5051373;28;20398;-65
2022/04/16 09:47:51;;;;;;;7.68;3.80;;;24.30;66.40;;;;;;5051624;28;20488;-64
2022/04/16 09:50:21;;;;;;;7.57;4.18;;;24.10;66.10;;;;;;5050849;28;20496;-64
2022/04/16 09:52:54;;;;;;;10.73;3.95;;;24.30;67.10;;;;;;5051368;28;20444;-64
2022/04/16 09:55:25;;;;;;;9.18;3.85;;;24.20;66.90;;;;;;5051660;28;20385;-65
2022/04/16 09:57:57;;;;;;;6.32;3.80;;;24.30;67.70;;;;;;5049685;28;20396;-65
2022/04/16 10:00:23;;;;;;;6.72;3.60;;;24.30;68.10;;;;;;5051075;28;20393;-65
2022/04/16 10:02:49;;;;;;;8.20;4.30;;;24.20;68.00;;;;;;5051391;28;20674;-65
2022/04/16 10:05:16;;;;;;;4.35;3.55;;;24.30;68.10;;;;;;5051208;28;20389;-63
2022/04/16 10:07:45;;;;;;;6.07;3.55;;;24.20;68.30;;;;;;5051231;28;20397;-64
2022/04/16 10:10:17;;;;;;;5.68;3.50;;;24.20;68.20;;;;;;5049301;28;20390;-64
2022/04/16 10:12:59;;;;;;;5.00;3.22;;;24.20;68.00;;;;;;5051194;28;20475;-64
2022/04/16 10:15:32;;;;;;;5.95;3.75;;;24.20;69.00;;;;;;5051167;28;20381;-64
2022/04/16 10:17:58;;;;;;;5.85;3.53;;;24.20;68.70;;;;;;5068878;28;20883;-64
2022/04/16 10:20:25;;;;;;;7.13;3.60;;;24.20;68.40;;;;;;5057857;28;20394;-64
2022/04/16 10:22:56;;;;;;;6.10;3.40;;;24.30;68.80;;;;;;5062388;28;20390;-64
2022/04/16 10:25:35;;;;;;;4.53;3.10;;;24.30;68.80;;;;;;5065623;28;20376;-64
2022/04/16 10:28:06;;;;;;;6.28;3.53;;;24.30;68.20;;;;;;5051885;28;20391;-64
2022/04/16 10:30:49;;;;;;;6.07;3.60;;;24.30;68.50;;;;;;5054564;28;20431;-65
2022/04/16 10:33:27;;;;;;;3.42;3.13;;;24.30;68.80;;;;;;5056468;28;20423;-63
2022/04/16 10:36:05;;;;;;;3.63;2.95;;;24.30;69.40;;;;;;5054469;28;20374;-64
2022/04/16 10:38:31;;;;;;;4.17;3.40;;;24.20;68.90;;;;;;5068180;28;20973;-64
2022/04/16 10:40:59;;;;;;;3.80;3.20;;;24.30;68.50;;;;;;5072115;28;20406;-64
2022/04/16 10:43:34;;;;;;;3.38;3.08;;;25.70;54.10;;;;;;5070497;28;20399;-63
2022/04/16 10:46:07;;;;;;;3.97;3.10;;;24.30;53.10;;;;;;5071105;28;20871;-65
2022/04/16 10:48:38;;;;;;;4.07;2.95;;;24.30;53.00;;;;;;5071436;28;20406;-64
2022/04/16 10:51:05;;;;;;;6.45;2.67;;;24.30;54.10;;;;;;5071448;28;20895;-65
2022/04/16 10:53:39;;;;;;;3.63;2.60;;;24.30;54.70;;;;;;5071512;28;20506;-65
2022/04/16 10:56:17;;;;;;;5.00;2.90;;;24.30;55.90;;;;;;5071435;28;20411;-64
2022/04/16 10:58:48;;;;;;;3.63;2.70;;;24.40;61.10;;;;;;5053633;28;20392;-64
2022/04/16 11:01:24;;;;;;;5.32;2.75;;;24.30;57.40;;;;;;5071470;28;20418;-64
2022/04/16 11:03:51;;;;;;;8.18;2.80;;;24.30;57.50;;;;;;5071642;28;20902;-64
2022/04/16 11:06:17;;;;;;;3.53;2.83;;;24.30;57.90;;;;;;5071186;28;20394;-63
2022/04/16 11:08:47;;;;;;;4.63;2.58;;;24.30;58.40;;;;;;5053683;28;20395;-63
2022/04/16 11:11:14;;;;;;;5.32;2.85;;;24.30;58.30;;;;;;5053396;28;20808;-63
2022/04/16 11:13:42;;;;;;;8.23;2.80;;;24.30;58.30;;;;;;5071557;28;20464;-63
2022/04/16 11:16:09;;;;;;;7.28;2.80;;;24.30;58.80;;;;;;5071024;28;20864;-65
2022/04/16 11:18:43;;;;;;;7.43;2.63;;;24.30;58.90;;;;;;5071393;28;20397;-63
2022/04/16 11:21:13;;;;;;;5.18;2.40;;;24.20;58.70;;;;;;5071511;28;20760;-63
2022/04/16 11:23:40;;;;;;;4.43;2.40;;;24.20;58.80;;;;;;5065216;28;20415;-65
2022/04/16 11:34:26;;;;;;;7.55;3.08;;;24.20;58.90;;;;;;5049345;28;20883;-64
2022/04/16 11:36:53;;;;;;;5.17;2.53;;;24.20;59.10;;;;;;5050113;28;20397;-64
2022/04/16 11:39:24;;;;;;;4.30;2.80;;;24.20;58.80;;;;;;5049659;28;20405;-66
2022/04/16 11:41:54;;;;;;;5.53;2.70;;;24.30;59.60;;;;;;5049702;28;20393;-64
2022/04/16 11:44:45;;;;;;;5.30;2.83;;;24.30;59.20;;;;;;5049113;28;20432;-64
2022/04/16 11:47:15;;;;;;;7.07;3.20;;;24.30;58.90;;;;;;5050098;28;20496;-64
2022/04/16 11:49:44;;;;;;;6.15;2.85;;;24.20;59.50;;;;;;5053576;28;20417;-65
2022/04/16 11:52:11;;;;;;;7.85;3.05;;;24.20;60.10;;;;;;5052472;28;20409;-65
2022/04/16 11:54:37;;;;;;;5.77;3.50;;;24.30;60.70;;;;;;5054445;28;20404;-66
2022/04/16 11:57:03;;;;;;;8.88;3.75;;;24.40;60.80;;;;;;5052816;28;20397;-65
2022/04/16 11:59:29;;;;;;;9.00;3.90;;;24.40;61.00;;;;;;5052323;28;20743;-65
2022/04/16 12:02:08;;;;;;;7.53;3.60;;;24.40;61.40;;;;;;5052599;28;20388;-66
2022/04/16 12:04:44;;;;;;;7.13;3.30;;;24.40;61.10;;;;;;5033524;28;20448;-63
2022/04/16 12:07:17;;;;;;;14.32;4.05;;;24.40;61.30;;;;;;5052769;28;20417;-64
2022/04/16 12:09:48;;;;;;;11.55;3.30;;;24.40;62.00;;;;;;5052789;28;20389;-66
2022/04/16 12:12:23;;;;;;;8.82;3.15;;;24.40;62.80;;;;;;5049595;28;20413;-65
2022/04/16 12:14:53;;;;;;;7.40;3.33;;;24.50;63.40;;;;;;5052909;28;20397;-65
2022/04/16 12:17:29;;;;;;;8.95;3.10;;;24.50;62.60;;;;;;5052951;28;20397;-64
2022/04/16 12:20:05;;;;;;;13.77;3.30;;;24.50;62.80;;;;;;5050869;28;20385;-65
2022/04/16 12:22:32;;;;;;;10.95;3.15;;;24.50;62.80;;;;;;5052772;28;20393;-66
2022/04/16 12:25:09;;;;;;;8.98;3.05;;;24.60;63.10;;;;;;5034829;28;20464;-67
2022/04/16 12:27:35;;;;;;;10.95;3.13;;;24.60;63.10;;;;;;5049613;28;20926;-64
2022/04/16 12:30:02;;;;;;;13.50;3.22;;;24.70;63.20;;;;;;5052460;28;20401;-64
2022/04/16 12:32:28;;;;;;;6.40;2.70;;;24.60;63.00;;;;;;5052308;28;20490;-66
2022/04/16 12:34:54;;;;;;;7.90;2.80;;;24.60;63.00;;;;;;5052449;28;20476;-64
2022/04/16 12:37:20;;;;;;;8.83;2.93;;;24.60;63.00;;;;;;5051467;28;20408;-64
2022/04/16 12:39:46;;;;;;;9.38;2.90;;;24.60;63.20;;;;;;5053188;28;20396;-63
2022/04/16 12:42:12;;;;;;;9.45;2.70;;;24.60;63.20;;;;;;5051813;28;20381;-64
2022/04/16 12:44:38;;;;;;;5.65;2.60;;;24.60;63.00;;;;;;5052350;28;20837;-64
2022/04/16 12:47:03;;;;;;;5.47;2.70;;;24.60;62.90;;;;;;5051003;28;20436;-65
2022/04/16 12:49:29;;;;;;;6.70;2.72;;;24.60;62.80;;;;;;5052424;28;20389;-66
2022/04/16 12:51:55;;;;;;;6.63;2.90;;;24.70;62.90;;;;;;5053218;28;20401;-64
2022/04/16 12:54:20;;;;;;;8.50;2.78;;;24.60;62.80;;;;;;5052106;28;20398;-64
2022/04/16 12:56:47;;;;;;;5.22;2.60;;;24.60;62.90;;;;;;5052150;28;20416;-64
2022/04/16 12:59:15;;;;;;;5.93;2.90;;;24.60;63.10;;;;;;5052660;28;20425;-64
2022/04/16 13:01:41;;;;;;;9.02;2.85;;;24.70;63.30;;;;;;5052580;28;20381;-65
2022/04/16 13:04:07;;;;;;;6.55;2.55;;;24.60;63.30;;;;;;5051582;28;20394;-65
2022/04/16 13:06:32;;;;;;;8.13;2.70;;;24.60;63.40;;;;;;5052971;28;20387;-64